M I D A S
Marine Information and Data Acquisition System
Tripno 552 of the Zeeleeuw from 2003-08-20 07:26:36 to 2003-08-20 14:04:50
Back to CruiseResearch ActivitiesStationsMapUnderway DataData graphs

EquipmentUnitsComment
TimeDGPSUTC
LatitudeDGPSDM.mWGS84
LongitudeDGPSDM.mWGS84
TemperatureSBE03/SBE38deg celciusITS90
ConductivitySBE21S/mITS90
SalinitySBE21 Practical Salinity Units
ChlorophylAChelsea fluorimeterg/lCalibrated in Aceton
Missing or incorrect values are displayed as -999
Sea surface data collected by the RV Zeeleeuw from 2003-08-20 07:26:36 to 2003-08-20 14:04:50
Time Latitude Longitude Temperature Conductivity Salinity ChlorophylA
2003-08-20 07:27:40 51°11.37 2°45.87 49.377136 4.822321 34.094588 1.645828
2003-08-20 07:28:40 51°11.28 2°45.55 -999 4.798048 33.900532 1.612118
2003-08-20 07:29:40 51°11.18 2°45.23 -999 4.813878 34.027092 1.578409
2003-08-20 07:30:40 51°11.09 2°44.92 49.682251 4.822216 34.101448 1.51099
2003-08-20 07:31:40 51°10.99 2°44.6 -999 4.81715 34.067311 1.612118
2003-08-20 07:32:40 51°10.9 2°44.27 -999 4.830342 34.176943 1.612118
2003-08-20 07:33:40 51°10.83 2°43.94 49.659861 4.83372 34.208166 1.612118
2003-08-20 07:34:40 51°10.77 2°43.59 39.092637 4.835408 34.221021 1.780665
2003-08-20 07:35:40 51°10.79 2°43.25 38.551991 4.83467 34.237255 1.848084
2003-08-20 07:36:40 51°10.87 2°42.91 38.111701 4.832454 34.247857 1.915503
2003-08-20 07:37:40 51°10.94 2°42.58 37.553428 4.825279 34.260046 2.555982
2003-08-20 07:38:40 51°10.99 2°42.23 39.302185 4.817365 34.265318 3.466136
2003-08-20 07:39:40 51°11.03 2°41.89 39.363804 4.815888 34.278031 3.870648
2003-08-20 07:40:40 51°10.92 2°41.6 37.90535 4.818315 34.30076 3.836939
2003-08-20 07:41:40 51°10.78 2°41.33 38.908246 4.820004 34.332111 4.140324
2003-08-20 07:42:40 51°10.64 2°41.06 40.725939 4.818632 34.322265 4.174033
2003-08-20 07:43:40 51°10.5 2°40.79 37.846404 4.819477 34.327336 4.308871
2003-08-20 07:44:40 51°10.35 2°40.52 39.121883 4.818632 34.317797 4.308871
2003-08-20 07:45:40 51°10.21 2°40.26 39.196694 4.817366 34.29652 4.308871
2003-08-20 07:46:40 51°10.06 2°39.99 37.261465 4.816627 34.296755 4.443708
2003-08-20 07:47:40 51°9.92 2°39.71 38.27437 4.815572 34.307858 4.511127
2003-08-20 07:48:40 51°9.8 2°39.42 37.223142 4.814412 34.324283 4.612255
2003-08-20 07:49:40 51°9.78 2°39.07 35.802552 4.815256 34.342786 4.578546
2003-08-20 07:50:40 51°9.88 2°38.75 37.420348 4.815889 34.347293 4.376289
2003-08-20 07:51:40 51°10.01 2°38.45 36.87831 4.816101 34.355701 4.140324
2003-08-20 07:52:40 51°10.1 2°38.13 37.639562 4.817789 34.368095 4.106614
2003-08-20 07:53:40 51°10.03 2°37.8 35.954766 4.821483 34.412245 3.634683
2003-08-20 07:54:40 51°9.91 2°37.51 37.033991 4.8218 34.40468 3.836939
2003-08-20 07:55:40 51°9.76 2°37.24 37.603852 4.822116 34.419562 3.668392
2003-08-20 07:56:40 51°9.62 2°36.96 39.541665 4.821589 34.430501 3.600973
2003-08-20 07:57:40 51°9.48 2°36.69 35.705 4.820745 34.429356 3.432426
2003-08-20 07:58:40 51°9.35 2°36.4 36.138902 4.82085 34.430764 3.331298
2003-08-20 07:59:40 51°9.28 2°36.06 36.096806 4.82085 34.42683 3.297589
2003-08-20 08:00:40 51°9.3 2°35.85 35.789456 4.821273 34.434709 3.398717
2003-08-20 08:01:40 51°9.34 2°35.76 35.033549 4.820956 34.433296 3.027913
2003-08-20 08:02:40 51°9.36 2°35.75 35.566688 4.820956 34.43667 3.19646
2003-08-20 08:03:40 51°9.38 2°35.74 35.393028 4.819901 34.432709 3.365007
2003-08-20 08:04:40 51°9.39 2°35.74 35.99795 4.819795 34.430177 3.398717
2003-08-20 08:05:40 51°9.41 2°35.75 35.011694 4.820428 34.430192 3.466136
2003-08-20 08:06:40 51°9.44 2°35.77 36.2811 4.821167 34.430491 3.331298
2003-08-20 08:07:40 51°9.47 2°35.79 34.968926 4.820428 34.415584 3.19646
2003-08-20 08:08:40 51°9.5 2°35.83 21.454414 4.819795 34.408265 3.129042
2003-08-20 08:09:40 51°9.52 2°35.87 21.47122 4.82275 34.425195 2.791947
2003-08-20 08:10:40 51°9.53 2°35.9 21.237958 4.820956 34.416441 2.758238
2003-08-20 08:11:40 51°9.54 2°35.94 21.62977 4.820534 34.415306 2.589691
2003-08-20 08:12:40 51°9.54 2°35.98 21.354526 4.820639 34.417836 2.6234
2003-08-20 08:13:40 51°9.54 2°36.01 21.415753 4.81874 34.423967 2.522272
2003-08-20 08:14:40 51°9.53 2°36.04 21.2028 4.818423 34.419181 2.65711
2003-08-20 08:15:40 51°9.52 2°36.07 21.140115 4.818212 34.425922 2.960494
2003-08-20 08:16:40 51°9.5 2°36.1 21.292174 4.817579 34.42197 3.027913
2003-08-20 08:17:40 51°9.48 2°36.11 21.432171 4.817685 34.426191 2.994204
2003-08-20 08:18:40 51°9.46 2°36.11 21.265509 4.818634 34.423683 2.994204
2003-08-20 08:19:40 51°9.44 2°36.1 21.308303 4.820428 34.420639 2.65711
2003-08-20 08:20:40 51°9.42 2°36.08 21.153851 4.818423 34.425927 2.690819
2003-08-20 08:21:40 51°9.41 2°36.05 21.223603 4.81969 34.42652 2.994204
2003-08-20 08:22:40 51°9.41 2°36.02 21.336461 4.821589 34.42713 3.162751
2003-08-20 08:23:40 51°9.41 2°35.97 21.497927 4.8218 34.430507 3.263879
2003-08-20 08:24:40 51°9.51 2°35.81 21.101999 4.821694 34.424043 2.960494
2003-08-20 08:25:40 51°9.68 2°35.62 21.084468 4.819056 34.42257 2.522272
2003-08-20 08:26:40 51°9.88 2°35.43 21.294439 4.815575 34.444161 1.645828
2003-08-20 08:27:40 51°10.08 2°35.24 21.190983 4.805972 34.445437 1.51099
2003-08-20 08:28:40 51°10.3 2°35.19 21.036315 4.80154 34.42448 1.207606
2003-08-20 08:29:40 51°10.48 2°35.39 21.253583 4.799325 34.436044 1.140187
2003-08-20 08:30:40 51°10.63 2°35.64 21.069643 4.795421 34.44366 1.106477
2003-08-20 08:31:40 51°10.79 2°35.9 21.201407 4.796686 34.425553 1.140187
2003-08-20 08:32:40 51°10.95 2°36.16 21.318909 4.803756 34.432701 1.612118
2003-08-20 08:33:40 51°11.11 2°36.42 21.239271 4.807555 34.424293 1.578409
2003-08-20 08:34:40 51°11.26 2°36.68 21.240821 4.804917 34.444296 1.072768
2003-08-20 08:35:40 51°11.42 2°36.93 21.151024 4.805761 34.434704 1.005349
2003-08-20 08:36:40 51°11.58 2°37.19 21.335866 4.815997 34.432342 1.106477
2003-08-20 08:37:40 51°11.74 2°37.45 21.313189 4.818001 34.421981 1.140187
2003-08-20 08:38:40 51°11.89 2°37.71 21.281247 4.819584 34.406014 1.207606
2003-08-20 08:39:40 51°12.05 2°37.97 21.56188 4.815679 34.364088 1.342443
2003-08-20 08:40:40 51°12.25 2°38.15 21.461866 4.814095 34.322869 1.308734
2003-08-20 08:41:40 51°12.46 2°38.29 21.363497 4.816628 34.330264 1.477281
2003-08-20 08:42:40 51°12.67 2°38.41 21.347182 4.814834 34.314242 1.578409
2003-08-20 08:43:40 51°12.88 2°38.53 21.366633 4.813989 34.296323 1.612118
2003-08-20 08:44:40 51°13.1 2°38.65 21.291459 4.8142 34.286848 1.746956
2003-08-20 08:45:40 51°13.31 2°38.77 21.588633 4.815782 34.272731 1.780665
2003-08-20 08:46:40 51°13.52 2°38.89 21.481563 4.820109 34.283873 1.915503
2003-08-20 08:47:40 51°13.74 2°38.96 21.530683 4.821798 34.297347 1.881794
2003-08-20 08:48:40 51°13.97 2°38.96 21.571854 4.826229 34.294846 1.814375
2003-08-20 08:49:40 51°14.16 2°38.78 21.557685 4.829923 34.308157 1.848084
2003-08-20 08:50:40 51°14.24 2°38.45 21.567936 4.831189 34.313799 1.746956
2003-08-20 08:51:40 51°14.18 2°38.09 21.690326 4.826546 34.284579 2.185178
2003-08-20 08:52:40 51°14.09 2°37.75 21.520743 4.818948 34.268487 2.320016
2003-08-20 08:53:40 51°13.99 2°37.41 21.559505 4.818737 34.268473 2.454853
2003-08-20 08:54:40 51°13.9 2°37.06 21.332411 4.81346 34.249185 2.488563
2003-08-20 08:55:40 51°13.8 2°36.72 21.5007 4.804808 34.241348 2.218888
2003-08-20 08:56:40 51°13.71 2°36.37 21.350715 4.796261 34.23996 2.252597
2003-08-20 08:57:40 51°13.62 2°36.03 21.402861 4.797738 34.240052 1.949212
2003-08-20 08:58:40 51°13.53 2°35.68 21.28081 4.794151 34.264461 1.982922
2003-08-20 08:59:40 51°13.44 2°35.34 21.373181 4.793307 34.298636 1.578409
2003-08-20 09:00:40 51°13.34 2°35 21.349008 4.797423 34.318187 1.376153
2003-08-20 09:01:40 51°13.26 2°34.66 21.213023 4.8008 34.336296 1.140187
2003-08-20 09:02:40 51°13.17 2°34.32 21.168618 4.801539 34.362465 1.072768
2003-08-20 09:03:40 51°13.07 2°34.09 21.102677 4.79964 34.388888 0.97164
2003-08-20 09:04:40 51°13 2°34.1 21.006402 4.803228 34.408139 0.465999
2003-08-20 09:05:40 51°13 2°34.09 20.986852 4.803017 34.412648 0.735674
2003-08-20 09:06:40 51°12.99 2°34.09 21.118491 4.80154 34.408107 1.039059
2003-08-20 09:07:40 51°12.95 2°34.12 21.128567 4.802173 34.405298 1.106477
2003-08-20 09:08:40 51°12.88 2°34.13 21.309694 4.800907 34.398503 0.870512
2003-08-20 09:09:40 51°12.83 2°34.11 21.084867 4.803439 34.405887 0.634546
2003-08-20 09:10:40 51°12.79 2°34.08 20.973004 4.805022 34.414659 0.634546
2003-08-20 09:11:40 51°12.72 2°34.12 21.153253 4.805233 34.410716 0.600836
2003-08-20 09:12:40 51°12.72 2°34.23 21.226745 4.808399 34.413599 0.499708
2003-08-20 09:13:40 51°12.78 2°34.29 21.36056 4.811142 34.408593 0.465999
2003-08-20 09:14:40 51°12.87 2°34.21 21.261732 4.809559 34.39758 0.634546
2003-08-20 09:15:40 51°12.94 2°34.11 21.217557 4.807765 34.390498 0.701965
2003-08-20 09:16:40 51°12.95 2°34.09 21.279737 4.808609 34.388272 0.836802
2003-08-20 09:17:40 51°12.95 2°34.07 21.014021 4.805866 34.403402 1.039059
2003-08-20 09:18:40 51°12.95 2°34.06 21.195479 4.802489 34.401638 1.005349
2003-08-20 09:19:40 51°12.96 2°34.05 21.182587 4.802068 34.408399 0.93793
2003-08-20 09:20:40 51°12.96 2°34.05 21.077973 4.804811 34.3938 0.870512
2003-08-20 09:21:40 51°12.96 2°34.04 21.26205 4.808715 34.387993 0.668255
2003-08-20 09:22:40 51°12.96 2°34.03 21.521495 4.811986 34.402426 0.803093
2003-08-20 09:23:40 51°12.96 2°34.02 21.247302 4.814413 34.390412 0.668255
2003-08-20 09:24:40 51°12.96 2°34.02 21.439586 4.814413 34.384797 0.668255
2003-08-20 09:25:40 51°12.96 2°34.04 21.312712 4.814307 34.393498 0.904221
2003-08-20 09:26:40 51°12.96 2°34.06 21.393538 4.81167 34.411139 1.039059
2003-08-20 09:27:40 51°12.94 2°34.08 21.063146 4.810192 34.376234 0.97164
2003-08-20 09:28:40 51°12.92 2°34.08 21.345594 4.806182 34.349698 1.039059
2003-08-20 09:29:40 51°12.9 2°34.07 21.220023 4.807554 34.360136 1.072768
2003-08-20 09:30:40 51°12.88 2°34.07 21.350794 4.805021 34.36061 1.106477
2003-08-20 09:31:40 51°12.86 2°34.06 21.339003 4.807132 34.371359 1.072768
2003-08-20 09:32:40 51°12.85 2°34.05 21.250284 4.806604 34.369936 1.072768
2003-08-20 09:33:40 51°12.83 2°34.04 21.416824 4.811458 34.379646 1.005349
2003-08-20 09:34:40 51°12.81 2°34.02 21.324509 4.811353 34.382171 1.072768
2003-08-20 09:35:40 51°12.8 2°34 21.427809 4.811036 34.371208 1.072768
2003-08-20 09:36:40 51°12.79 2°33.98 21.278346 4.813041 34.382787 1.005349
2003-08-20 09:37:40 51°12.78 2°33.95 20.96079 4.812092 34.393713 0.97164
2003-08-20 09:38:40 51°12.77 2°33.93 21.443036 4.811986 34.387809 1.005349
2003-08-20 09:39:40 51°12.76 2°33.91 21.338566 4.81188 34.389211 1.072768
2003-08-20 09:40:40 51°12.72 2°33.76 21.303099 4.810509 34.388327 1.106477
2003-08-20 09:41:40 51°12.63 2°33.43 21.251834 4.809665 34.400677 0.668255
2003-08-20 09:42:40 51°12.54 2°33.08 21.219228 4.812725 34.422984 0.465999
2003-08-20 09:43:40 51°12.45 2°32.73 21.280253 4.804284 34.424521 0.701965
2003-08-20 09:44:40 51°12.36 2°32.38 21.237442 4.805128 34.42792 0.499708
2003-08-20 09:45:40 51°12.27 2°32.04 21.255929 4.802807 34.428452 0.533418
2003-08-20 09:46:40 51°12.18 2°31.69 21.198423 4.801751 34.422224 0.533418
2003-08-20 09:47:40 51°12.09 2°31.35 21.140035 4.798797 34.422184 0.600836
2003-08-20 09:48:40 51°11.99 2°31 21.305046 4.798797 34.418793 0.701965
2003-08-20 09:49:40 51°11.9 2°30.65 21.132868 4.79753 34.409733 0.735674
2003-08-20 09:50:40 51°11.81 2°30.31 20.998303 4.797108 34.413683 0.803093
2003-08-20 09:51:40 51°11.72 2°29.95 20.977753 4.79637 34.415086 0.735674
2003-08-20 09:52:40 51°11.62 2°29.6 21.198503 4.797425 34.415666 0.668255
2003-08-20 09:53:40 51°11.53 2°29.25 21.19914 4.797425 34.416231 0.600836
2003-08-20 09:54:40 51°11.44 2°28.89 20.90684 4.79637 34.419044 0.533418
2003-08-20 09:55:40 51°11.34 2°28.54 21.089449 4.794365 34.413647 0.533418
2003-08-20 09:56:40 51°11.25 2°28.18 21.250204 4.792782 34.414477 0.499708
2003-08-20 09:57:40 51°11.16 2°27.81 21.152258 4.793521 34.417598 0.499708
2003-08-20 09:58:40 51°11.07 2°27.45 20.979509 4.792571 34.420702 0.600836
2003-08-20 09:59:40 51°10.98 2°27.09 21.266423 4.788245 34.420952 0.701965
2003-08-20 10:00:40 51°10.88 2°26.73 20.812858 4.787084 34.418961 0.735674
2003-08-20 10:01:40 51°10.81 2°26.36 20.855567 4.781597 34.416666 0.803093
2003-08-20 10:02:40 51°10.75 2°25.98 21.066215 4.780331 34.419503 0.803093
2003-08-20 10:03:40 51°10.71 2°25.6 20.825977 4.786134 34.411301 0.600836
2003-08-20 10:04:40 51°10.72 2°25.21 21.040741 4.785713 34.422641 0.567127
2003-08-20 10:05:40 51°10.86 2°24.92 20.904722 4.785396 34.428031 0.499708
2003-08-20 10:06:40 51°11.07 2°24.8 20.725801 4.774634 34.448553 0.600836
2003-08-20 10:07:40 51°11.29 2°24.79 20.800897 4.759334 34.438198 0.567127
2003-08-20 10:08:40 51°11.5 2°24.81 20.811658 4.770308 34.44147 0.364871
2003-08-20 10:09:40 51°11.71 2°24.86 20.826617 4.76556 34.44753 0.39858
2003-08-20 10:10:40 51°11.93 2°24.91 20.812098 4.763449 34.442991 0.432289
2003-08-20 10:11:40 51°12.15 2°24.96 20.729485 4.765771 34.442956 0.364871
2003-08-20 10:12:40 51°12.36 2°25.02 20.748146 4.769147 34.457758 0.364871
2003-08-20 10:13:40 51°12.58 2°25.07 20.521205 4.758596 34.486648 0.331161
2003-08-20 10:14:40 51°12.79 2°25.11 20.612847 4.752476 34.476505 0.331161
2003-08-20 10:15:40 51°13 2°25.18 20.65287 4.753215 34.478492 0.364871
2003-08-20 10:16:40 51°13.14 2°25.23 20.599648 4.761128 34.44017 0.39858
2003-08-20 10:17:40 51°13.17 2°25.24 20.890739 4.765981 34.438383 0.432289
2003-08-20 10:18:40 51°13.17 2°25.27 20.610881 4.764399 34.448979 0.533418
2003-08-20 10:19:40 51°13.18 2°25.31 20.794735 4.764399 34.439833 0.465999
2003-08-20 10:20:40 51°13.18 2°25.36 21.071277 4.769041 34.436349 0.432289
2003-08-20 10:21:40 51°13.17 2°25.4 20.993954 4.77073 34.438043 0.39858
2003-08-20 10:22:40 51°13.17 2°25.44 20.767762 4.770519 34.435193 0.364871
2003-08-20 10:23:40 51°13.17 2°25.48 20.69187 4.770941 34.440893 0.39858
2003-08-20 10:24:40 51°13.16 2°25.52 20.949612 4.770624 34.452024 0.364871
2003-08-20 10:25:40 51°13.16 2°25.56 20.69243 4.769991 34.448037 0.364871
2003-08-20 10:26:40 51°13.15 2°25.6 20.681691 4.767881 34.450922 0.364871
2003-08-20 10:27:40 51°13.15 2°25.63 21.092079 4.762395 34.466473 0.331161
2003-08-20 10:28:40 51°13.15 2°25.67 20.76552 4.760179 34.462802 0.331161
2003-08-20 10:29:40 51°13.15 2°25.7 21.111401 4.760601 34.465657 0.331161
2003-08-20 10:30:40 51°13.15 2°25.74 20.877311 4.762183 34.464187 0.331161
2003-08-20 10:31:40 51°13.14 2°25.78 20.526105 4.760495 34.457353 0.331161
2003-08-20 10:32:40 51°13.14 2°25.81 20.597883 4.765138 34.45497 0.331161
2003-08-20 10:33:40 51°13.14 2°25.85 20.480785 4.764188 34.451842 0.364871
2003-08-20 10:34:40 51°13.13 2°25.88 20.537069 4.762605 34.44758 0.331161
2003-08-20 10:35:40 51°13.13 2°25.92 20.75251 4.764926 34.445254 0.331161
2003-08-20 10:36:40 51°13.2 2°26.01 20.878391 4.762816 34.444717 0.331161
2003-08-20 10:37:40 51°13.31 2°26.18 20.744862 4.764715 34.436115 0.364871
2003-08-20 10:38:40 51°13.43 2°26.37 20.901366 4.76482 34.422125 0.432289
2003-08-20 10:39:40 51°13.56 2°26.61 20.812818 4.765559 34.409855 0.465999
2003-08-20 10:40:40 51°13.7 2°26.87 20.892417 4.768618 34.39134 0.533418
2003-08-20 10:41:40 51°13.83 2°27.12 20.855567 4.767141 34.379958 0.567127
2003-08-20 10:42:40 51°13.97 2°27.37 21.04425 4.771572 34.348203 0.904221
2003-08-20 10:43:40 51°14.1 2°27.62 21.187641 4.782967 34.299906 1.005349
2003-08-20 10:44:40 51°14.24 2°27.87 21.157593 4.785816 34.31043 1.039059
2003-08-20 10:45:40 51°14.37 2°28.12 20.980507 4.787398 34.287141 1.039059
2003-08-20 10:46:40 51°14.5 2°28.38 21.189511 4.788453 34.278199 0.97164
2003-08-20 10:47:40 51°14.64 2°28.63 21.02471 4.792463 34.30197 0.97164
2003-08-20 10:48:40 51°14.77 2°28.88 21.287326 4.792991 34.298341 1.039059
2003-08-20 10:49:40 51°14.9 2°29.13 21.36056 4.789086 34.281036 1.106477
2003-08-20 10:50:40 51°15.05 2°29.36 21.269086 4.788453 34.283254 1.173896
2003-08-20 10:51:40 51°15.2 2°29.59 21.057047 4.787187 34.27477 1.275024
2003-08-20 10:52:40 51°15.35 2°29.82 21.1601 4.785815 34.267122 1.308734
2003-08-20 10:53:40 51°15.51 2°30.05 21.102278 4.784865 34.26792 1.477281
2003-08-20 10:54:40 51°15.66 2°30.27 21.146286 4.784865 34.260056 1.376153
2003-08-20 10:55:40 51°15.81 2°30.49 21.221455 4.78592 34.258986 1.443571
2003-08-20 10:56:40 51°15.97 2°30.71 21.140274 4.79088 34.248875 1.376153
2003-08-20 10:57:40 51°16.13 2°30.92 21.270477 4.79415 34.240389 1.376153
2003-08-20 10:58:40 51°16.29 2°31.13 21.328281 4.791934 34.224873 1.5447
2003-08-20 10:59:40 51°16.45 2°31.34 21.368855 4.793622 34.2032 1.5447
2003-08-20 11:00:40 51°16.61 2°31.56 21.343966 4.792462 34.217361 1.308734
2003-08-20 11:01:40 51°16.77 2°31.77 21.251954 4.78898 34.243726 1.106477
2003-08-20 11:02:40 51°16.93 2°31.99 21.250284 4.787607 34.195241 1.376153
2003-08-20 11:03:40 51°17.08 2°32.21 21.340075 4.791195 34.207778 1.173896
2003-08-20 11:04:40 51°17.24 2°32.42 21.260461 4.793938 34.156697 1.308734
2003-08-20 11:05:40 51°17.4 2°32.63 21.45921 4.794887 34.114841 1.5447
2003-08-20 11:06:40 51°17.55 2°32.84 21.854027 4.795413 34.059257 1.645828
2003-08-20 11:07:40 51°17.7 2°33.05 21.663612 4.79288 34.047921 1.713247
2003-08-20 11:08:40 51°17.86 2°33.26 21.783155 4.79478 34.043719 1.746956
2003-08-20 11:09:40 51°18.01 2°33.46 21.564809 4.805647 34.013389 1.780665
2003-08-20 11:10:40 51°18.16 2°33.67 21.618816 4.799105 34.003196 2.151469
2003-08-20 11:11:40 51°18.32 2°33.87 21.841293 4.795517 33.98678 2.218888
2003-08-20 11:12:40 51°18.47 2°34.08 21.904309 4.809128 33.928747 2.08405
2003-08-20 11:13:40 51°18.63 2°34.29 21.735788 4.807651 33.923059 2.151469
2003-08-20 11:14:40 51°18.78 2°34.49 21.911596 4.791929 33.936849 2.387435
2003-08-20 11:15:40 51°18.94 2°34.7 21.728443 4.790768 33.930921 2.454853
2003-08-20 11:16:40 51°19.1 2°34.9 21.584043 4.787286 33.935092 2.387435
2003-08-20 11:17:40 51°19.27 2°35.07 21.609086 4.788235 33.917936 2.252597
2003-08-20 11:18:40 51°19.43 2°35.22 21.867626 4.786652 33.880706 2.252597
2003-08-20 11:19:40 51°19.52 2°35.25 21.992139 4.791926 33.79214 1.881794
2003-08-20 11:20:40 51°19.57 2°35.23 22.096166 4.796357 33.748509 1.746956
2003-08-20 11:21:40 51°19.6 2°35.2 22.067128 4.801104 33.722718 1.679537
2003-08-20 11:22:40 51°19.61 2°35.18 21.929043 4.798362 33.752421 1.848084
2003-08-20 11:23:40 51°19.62 2°35.17 21.775854 4.797412 33.752505 1.949212
2003-08-20 11:24:40 51°19.63 2°35.16 21.962979 4.799627 33.739155 1.915503
2003-08-20 11:25:40 51°19.63 2°35.14 21.793532 4.794246 33.747011 2.016631
2003-08-20 11:26:40 51°19.63 2°35.13 21.900843 4.794247 33.763807 2.185178
2003-08-20 11:27:40 51°19.63 2°35.11 21.693171 4.791925 33.77313 2.185178
2003-08-20 11:28:40 51°19.63 2°35.1 21.941879 4.793508 33.750929 2.151469
2003-08-20 11:29:40 51°19.64 2°35.09 21.827177 4.791081 33.77623 2.286306
2003-08-20 11:30:40 51°19.64 2°35.07 22.045705 4.789921 33.770311 2.218888
2003-08-20 11:31:40 51°19.64 2°35.06 21.93365 4.794141 33.74672 2.08405
2003-08-20 11:32:40 51°19.64 2°35.06 22.022309 4.799944 33.714114 1.814375
2003-08-20 11:33:40 51°19.65 2°35.06 21.814439 4.799522 33.738864 1.982922
2003-08-20 11:34:40 51°19.64 2°35.06 21.868375 4.800893 33.723753 1.814375
2003-08-20 11:35:40 51°19.64 2°35.06 21.964593 4.801104 33.713548 1.713247
2003-08-20 11:36:40 51°19.64 2°35.07 22.357023 4.798889 33.765243 1.915503
2003-08-20 11:37:40 51°19.64 2°35.08 21.994224 4.803953 33.710105 1.645828
2003-08-20 11:38:40 51°19.64 2°35.09 22.081275 4.806802 33.696991 1.612118
2003-08-20 11:39:40 51°19.68 2°35.17 22.293778 4.807224 33.691169 1.612118
2003-08-20 11:40:40 51°19.79 2°35.41 22.148948 4.806274 33.697146 1.645828
2003-08-20 11:41:40 51°19.9 2°35.67 22.074948 4.802158 33.656734 1.746956
2003-08-20 11:42:40 51°19.98 2°35.96 22.046294 4.789179 33.637966 1.881794
2003-08-20 11:43:40 51°20.05 2°36.26 22.13925 4.80068 33.613483 1.679537
2003-08-20 11:44:40 51°20.1 2°36.57 22.31403 4.795721 33.616879 1.881794
2003-08-20 11:45:40 51°20.15 2°36.88 22.25165 4.8068 33.60745 1.5447
2003-08-20 11:46:40 51°20.18 2°37.2 22.319553 4.799941 33.601792 1.679537
2003-08-20 11:47:40 51°20.21 2°37.52 22.000558 4.794243 33.584898 1.679537
2003-08-20 11:48:40 51°20.22 2°37.84 22.271443 4.793082 33.574175 1.612118
2003-08-20 11:49:40 51°20.23 2°38.17 22.411842 4.801418 33.598935 1.578409
2003-08-20 11:50:40 51°20.24 2°38.5 22.129866 4.78844 33.604723 1.645828
2003-08-20 11:51:40 51°20.25 2°38.83 22.084026 4.798991 33.586846 1.612118
2003-08-20 11:52:40 51°20.26 2°39.16 21.815504 4.802368 33.579115 1.5447
2003-08-20 11:53:40 51°20.27 2°39.5 22.09208 4.785907 33.590167 1.713247
2003-08-20 11:54:40 51°20.27 2°39.83 22.005593 4.774828 33.562579 1.713247
2003-08-20 11:55:40 51°20.28 2°40.17 22.230439 4.794454 33.574775 1.51099
2003-08-20 11:56:40 51°20.29 2°40.5 22.0788 4.795087 33.601713 1.679537
2003-08-20 11:57:40 51°20.3 2°40.83 21.762633 4.792872 33.626158 1.679537
2003-08-20 11:58:40 51°20.31 2°41.16 22.098013 4.785379 33.565083 1.612118
2003-08-20 11:59:40 51°20.33 2°41.49 21.99025 4.78485 33.504198 1.477281
2003-08-20 12:00:40 51°20.34 2°41.82 22.007403 4.782424 33.503846 1.578409
2003-08-20 12:01:40 51°20.36 2°42.15 22.098838 4.777571 33.549257 1.746956
2003-08-20 12:02:40 51°20.36 2°42.48 22.035246 4.769761 33.44284 1.612118
2003-08-20 12:03:40 51°20.37 2°42.81 22.311093 4.771343 33.452073 1.578409
2003-08-20 12:04:40 51°20.38 2°43.15 22.075184 4.783267 33.475761 1.443571
2003-08-20 12:05:40 51°20.39 2°43.48 22.156131 4.790654 33.530517 1.477281
2003-08-20 12:06:40 51°20.4 2°43.81 22.088348 4.795719 33.514204 1.409862
2003-08-20 12:07:40 51°20.42 2°44.14 22.139093 4.792025 33.482606 1.409862
2003-08-20 12:08:40 51°20.43 2°44.47 22.343713 4.785588 33.469443 1.612118
2003-08-20 12:09:40 51°20.44 2°44.8 22.283082 4.783478 33.445974 1.5447
2003-08-20 12:10:40 51°20.45 2°45.13 22.325192 4.772398 33.435797 1.645828
2003-08-20 12:11:40 51°20.46 2°45.45 22.22589 4.76733 33.254378 1.342443
2003-08-20 12:12:40 51°20.45 2°45.64 22.409534 4.767962 33.192415 1.241315
2003-08-20 12:13:40 51°20.42 2°45.69 22.503426 4.768489 33.183919 1.140187
2003-08-20 12:14:40 51°20.39 2°45.71 22.361485 4.767329 33.191155 1.207606
2003-08-20 12:15:40 51°20.37 2°45.73 22.341951 4.767012 33.18921 1.140187
2003-08-20 12:16:40 51°20.34 2°45.74 22.137641 4.762476 33.260268 1.409862
2003-08-20 12:17:40 51°20.32 2°45.76 22.517097 4.759522 33.259359 1.342443
2003-08-20 12:18:40 51°20.3 2°45.78 22.356944 4.764269 33.203045 1.140187
2003-08-20 12:19:40 51°20.28 2°45.79 22.309644 4.767856 33.184759 1.106477
2003-08-20 12:20:40 51°20.26 2°45.81 22.420094 4.769122 33.191484 1.106477
2003-08-20 12:21:40 51°20.24 2°45.82 22.263291 4.768489 33.187596 1.106477
2003-08-20 12:22:40 51°20.22 2°45.84 22.597 4.767856 33.189489 1.106477
2003-08-20 12:23:40 51°20.21 2°45.86 22.495925 4.7706 33.186721 1.106477
2003-08-20 12:24:40 51°20.19 2°45.87 22.222125 4.772182 33.189085 1.106477
2003-08-20 12:25:40 51°20.17 2°45.89 22.507215 4.770705 33.194371 1.106477
2003-08-20 12:26:40 51°20.15 2°45.9 22.571598 4.769439 33.188173 1.106477
2003-08-20 12:27:40 51°20.13 2°45.92 22.487916 4.768278 33.191205 1.140187
2003-08-20 12:28:40 51°20.12 2°45.93 22.274539 4.767962 33.200828 1.173896
2003-08-20 12:29:40 51°20.1 2°45.95 22.468026 4.767223 33.195589 1.173896
2003-08-20 12:30:40 51°20.08 2°45.96 22.529437 4.764691 33.209502 1.173896
2003-08-20 12:31:40 51°20.07 2°45.99 22.59739 4.768806 33.194795 1.173896
2003-08-20 12:32:40 51°20.01 2°46.14 22.468807 4.76659 33.205379 1.275024
2003-08-20 12:33:40 51°19.93 2°46.43 22.401828 4.767118 33.18688 1.376153
2003-08-20 12:34:40 51°19.82 2°46.73 22.466814 4.762579 33.119488 1.173896
2003-08-20 12:35:40 51°19.7 2°47.01 22.610692 4.756564 33.093036 1.106477
2003-08-20 12:36:40 51°19.57 2°47.3 22.444103 4.758674 33.079122 1.072768
2003-08-20 12:37:40 51°19.46 2°47.59 22.459661 4.757619 33.064629 1.039059
2003-08-20 12:38:40 51°19.34 2°47.88 22.605504 4.771547 33.063924 1.039059
2003-08-20 12:39:40 51°19.22 2°48.18 22.459974 4.768381 33.050271 1.140187
2003-08-20 12:40:40 51°19.1 2°48.47 22.409064 4.759201 33.015902 1.376153
2003-08-20 12:41:40 51°18.99 2°48.77 22.49991 4.740841 32.999225 1.51099
2003-08-20 12:42:40 51°18.88 2°49.06 22.376631 4.741262 32.958132 1.915503
2003-08-20 12:43:40 51°18.76 2°49.36 22.207143 4.731344 32.927782 1.915503
2003-08-20 12:44:40 51°18.64 2°49.65 22.316929 4.71942 32.878607 1.814375
2003-08-20 12:45:40 51°18.51 2°49.94 22.17862 4.710557 32.838637 1.746956
2003-08-20 12:46:40 51°18.39 2°50.23 22.446566 4.710028 32.78764 1.814375
2003-08-20 12:47:40 51°18.26 2°50.52 22.024393 4.709606 32.784869 1.848084
2003-08-20 12:48:40 51°18.15 2°50.77 22.363638 4.706335 32.757807 1.949212
2003-08-20 12:49:40 51°18.11 2°50.85 22.403588 4.715725 32.744846 1.814375
2003-08-20 12:50:40 51°18.09 2°50.87 22.481156 4.720895 32.751929 1.780665
2003-08-20 12:51:40 51°18.07 2°50.89 22.448051 4.717413 32.764193 1.881794
2003-08-20 12:52:40 51°18.04 2°50.92 22.467752 4.716147 32.752271 1.814375
2003-08-20 12:53:40 51°18.02 2°50.93 22.340541 4.716569 32.751929 1.848084
2003-08-20 12:54:40 51°17.99 2°50.95 22.494831 4.719629 32.737954 1.780665
2003-08-20 12:55:40 51°17.96 2°50.97 22.354792 4.7229 32.750962 1.848084
2003-08-20 12:56:40 51°17.94 2°50.99 22.457511 4.715514 32.771183 2.016631
2003-08-20 12:57:40 51°17.92 2°51.01 22.213301 4.709079 32.779196 2.08405
2003-08-20 12:58:40 51°17.9 2°51.03 22.451726 4.707496 32.778293 2.050341
2003-08-20 12:59:40 51°17.87 2°51.05 22.458801 4.709079 32.778156 2.016631
2003-08-20 13:00:40 51°17.85 2°51.06 22.180857 4.708129 32.78115 2.016631
2003-08-20 13:01:40 51°17.83 2°51.08 22.299263 4.708657 32.781624 2.117759
2003-08-20 13:02:40 51°17.81 2°51.1 22.214517 4.707602 32.78744 2.151469
2003-08-20 13:03:40 51°17.79 2°51.12 22.268151 4.707074 32.791652 2.117759
2003-08-20 13:04:40 51°17.77 2°51.15 22.264624 4.706336 32.790574 2.117759
2003-08-20 13:05:40 51°17.75 2°51.17 22.329343 4.705808 32.795831 2.185178
2003-08-20 13:06:40 51°17.72 2°51.19 22.41501 4.706336 32.798387 2.252597
2003-08-20 13:07:40 51°17.69 2°51.25 22.312934 4.706441 32.794522 2.151469
2003-08-20 13:08:40 51°17.61 2°51.51 22.407461 4.707707 32.793468 2.387435
2003-08-20 13:09:40 51°17.49 2°51.8 22.352247 4.713405 32.803563 2.488563
2003-08-20 13:10:40 51°17.37 2°52.1 22.246592 4.716149 32.849953 2.555982
2003-08-20 13:11:40 51°17.23 2°52.39 22.467986 4.724273 32.865898 2.589691
2003-08-20 13:12:40 51°17.09 2°52.67 22.363951 4.731343 32.90432 2.6234
2003-08-20 13:13:40 51°16.96 2°52.96 22.324096 4.727335 32.952406 2.589691
2003-08-20 13:14:40 51°16.83 2°53.24 22.258353 4.734299 32.988988 2.589691
2003-08-20 13:15:40 51°16.7 2°53.52 22.439411 4.743691 33.050777 2.387435
2003-08-20 13:16:40 51°16.6 2°53.64 22.452352 4.74844 33.0868 2.218888
2003-08-20 13:17:40 51°16.52 2°53.63 22.292407 4.756247 33.076955 2.08405
2003-08-20 13:18:40 51°16.47 2°53.6 22.43773 4.759835 33.069863 2.151469
2003-08-20 13:19:40 51°16.44 2°53.56 22.637327 4.761312 33.063602 2.185178
2003-08-20 13:20:40 51°16.4 2°53.51 22.347941 4.763739 33.068391 2.151469
2003-08-20 13:21:40 51°16.37 2°53.46 22.3553 4.765427 33.067956 2.185178
2003-08-20 13:22:40 51°16.34 2°53.4 22.388957 4.765533 33.07295 2.151469
2003-08-20 13:23:40 51°16.31 2°53.34 22.462436 4.765849 33.071759 2.151469
2003-08-20 13:24:40 51°16.29 2°53.28 22.530921 4.766271 33.076607 2.185178
2003-08-20 13:25:40 51°16.26 2°53.22 22.676346 4.7649 33.081075 2.117759
2003-08-20 13:26:40 51°16.24 2°53.16 22.452664 4.765427 33.084136 2.08405
2003-08-20 13:27:40 51°16.22 2°53.09 22.444885 4.765216 33.088761 2.08405
2003-08-20 13:28:40 51°16.21 2°53.03 22.38477 4.764267 33.093912 2.050341
2003-08-20 13:29:40 51°16.19 2°52.96 22.556259 4.762579 33.094885 2.08405
2003-08-20 13:30:40 51°16.17 2°52.9 22.400967 4.764267 33.100186 2.08405
2003-08-20 13:31:40 51°16.16 2°52.84 22.513581 4.766694 33.10653 2.016631
2003-08-20 13:32:40 51°16.15 2°52.77 22.57792 4.767855 33.11295 2.050341
2003-08-20 13:33:40 51°16.14 2°52.71 22.494167 4.768488 33.114741 2.08405
2003-08-20 13:34:40 51°16.12 2°52.64 22.436792 4.769649 33.120637 1.982922
2003-08-20 13:35:40 51°16.1 2°52.58 22.434641 4.767433 33.134258 2.08405
2003-08-20 13:36:40 51°16.07 2°52.54 22.554424 4.767116 33.129698 2.050341
2003-08-20 13:37:40 51°16.04 2°52.51 22.358549 4.76891 33.130057 1.982922
2003-08-20 13:38:40 51°16 2°52.49 22.60133 4.771126 33.132134 2.016631
2003-08-20 13:39:40 51°15.97 2°52.5 22.59778 4.773236 33.140711 2.08405
2003-08-20 13:40:40 51°15.92 2°52.54 22.573588 4.771548 33.118166 2.050341
2003-08-20 13:41:40 51°15.84 2°52.65 22.806658 4.771864 33.119061 2.050341
2003-08-20 13:42:40 51°15.69 2°52.85 22.586388 4.74675 32.984695 2.218888
2003-08-20 13:43:40 51°15.53 2°53.07 22.46912 4.729759 32.838967 2.252597
2003-08-20 13:44:40 51°15.38 2°53.29 22.479671 4.734191 32.860978 2.218888
2003-08-20 13:45:40 51°15.22 2°53.52 22.42639 4.727122 32.856874 2.252597
2003-08-20 13:46:40 51°15.08 2°53.76 22.192745 4.717836 32.768513 2.286306
2003-08-20 13:47:40 51°14.94 2°54 22.301418 4.692829 32.683646 2.421144
2003-08-20 13:48:40 51°14.8 2°54.24 22.216203 4.677424 32.610648 2.589691
2003-08-20 13:49:40 51°14.66 2°54.5 22.293034 4.667716 32.544197 3.162751
2003-08-20 13:50:40 51°14.53 2°54.74 22.032927 4.660224 32.487276 2.926785
2003-08-20 13:51:40 51°14.41 2°54.97 22.46912 4.654421 32.439927 3.263879
2003-08-20 13:52:40 51°14.31 2°55.19 22.437339 4.615486 32.135866 5.421281
2003-08-20 13:53:40 51°14.22 2°55.32 22.242868 4.441302 30.732893 4.814512
2003-08-20 13:54:40 51°14.15 2°55.4 22.254629 4.410499 30.510944 4.679674
2003-08-20 13:55:40 51°14.08 2°55.45 22.287941 4.393517 30.415043 4.645965
2003-08-20 13:56:40 51°14.01 2°55.5 22.091491 4.394466 30.419963 -0.680121
2003-08-20 13:57:40 51°13.93 2°55.55 22.314618 4.394783 30.419992 -0.680121
2003-08-20 13:58:40 51°13.86 2°55.61 22.460209 4.394994 30.417274 -0.680121
2003-08-20 13:59:40 51°13.79 2°55.66 22.842592 4.395204 30.414074 -0.71383
2003-08-20 14:00:40 51°13.73 2°55.74 22.976833 4.39531 30.412475 -0.680121
2003-08-20 14:01:40 51°13.69 2°55.83 23.087037 4.395521 30.408794 -0.680121
2003-08-20 14:02:42 51°13.65 2°55.91 23.239308 4.395626 30.40623 -0.680121
2003-08-20 14:03:42 51°13.62 2°55.99 23.276611 4.396048 30.405146 -0.680121
2003-08-20 14:04:42 51°13.6 2°56.06 23.387979 4.396364 30.40373 -0.680121